Urb Campo Real, Puerto Rico
Current Conditions -  °F | °C
As of 1:53 AM on Wednesday 26 Nov 2014 (Local Time) from TJNR Reporting Station
Few Clouds Few Clouds  
Wind Chill: 80°   Ceiling: Unl
Heat Index: 84°   Visibility: 10mi
Dew Point: 71°   Wind: 9mph
Humidity: 74%   Direction: 80°E
Pressure: 30.01"   Gusts: NA
Location:  18.1853°N, 65.8667°W
Report Text: TJNR 260553Z AUTO 08008KT 10SM FEW040 27/22 A3001 RMK AO2 SLP161 T02670217 10272 20261 58014 $
Loading
Personal Weather Stations






























Interactive Weather Map New forecast layout! Learn more

10-Day Weather Forecast

Advertisements
Track Severe Weather on mobile